createdAt,value
2022-11-27T00:04:22.064Z,102173.53
2022-11-27T00:09:28.419Z,102170.91
2022-11-27T00:14:34.941Z,102166.66
2022-11-27T00:19:42.752Z,102162.38
2022-11-27T00:24:49.105Z,102152.97
2022-11-27T00:29:55.702Z,102162.44
2022-11-27T00:35:03.816Z,102166.78
2022-11-27T00:40:11.991Z,102156.53
2022-11-27T00:45:19.030Z,102160.00
2022-11-27T00:50:27.426Z,102154.72
2022-11-27T00:55:34.052Z,102151.09
2022-11-27T01:00:40.539Z,102146.00
2022-11-27T01:05:48.209Z,102146.59
2022-11-27T01:10:56.643Z,102136.38
2022-11-27T01:16:05.856Z,102132.16
2022-11-27T01:21:14.942Z,102131.38
2022-11-27T01:26:22.256Z,102136.56
2022-11-27T01:31:31.840Z,102146.78
2022-11-27T01:36:39.879Z,102156.28
2022-11-27T01:41:46.903Z,102160.66
2022-11-27T01:46:57.780Z,102167.44
2022-11-27T01:52:11.092Z,102172.66
2022-11-27T01:57:24.115Z,102176.81
2022-11-27T02:02:30.587Z,102172.53
2022-11-27T02:07:39.230Z,102171.66
2022-11-27T02:12:58.335Z,102166.53
2022-11-27T02:18:15.048Z,102169.22
2022-11-27T02:24:27.104Z,102165.84
2022-11-27T02:29:37.367Z,102170.03
2022-11-27T02:34:51.801Z,102175.16
2022-11-27T02:40:04.369Z,102170.91
2022-11-27T02:45:16.769Z,102169.09
2022-11-27T02:50:27.064Z,102168.28
2022-11-27T02:55:37.815Z,102177.72
2022-11-27T03:00:47.743Z,102175.84
2022-11-27T03:05:59.691Z,102188.66
2022-11-27T03:11:09.912Z,102191.34
2022-11-27T03:16:26.936Z,102188.97
2022-11-27T03:21:39.338Z,102188.22
2022-11-27T03:26:45.883Z,102191.59
2022-11-27T03:31:54.666Z,102182.25
2022-11-27T03:37:01.015Z,102185.66
2022-11-27T03:42:20.927Z,102181.38
2022-11-27T03:47:46.710Z,102183.00
2022-11-27T03:53:07.417Z,102182.25
2022-11-27T03:58:22.596Z,102179.69
2022-11-27T04:03:31.927Z,102173.72
2022-11-27T04:08:38.318Z,102174.59
2022-11-27T04:13:44.499Z,102176.97
2022-11-27T04:18:52.184Z,102171.84
2022-11-27T04:23:58.345Z,102166.66
2022-11-27T04:29:04.660Z,102166.66
2022-11-27T04:34:12.207Z,102164.13
2022-11-27T04:39:18.811Z,102165.84
2022-11-27T04:44:25.110Z,102163.44
2022-11-27T04:49:32.842Z,102170.41
2022-11-27T04:54:39.788Z,102172.97
2022-11-27T04:59:46.978Z,102171.22
2022-11-27T05:04:55.347Z,102164.44
2022-11-27T05:10:01.886Z,102171.28
2022-11-27T05:15:11.671Z,102176.38
2022-11-27T05:20:20.033Z,102184.13
2022-11-27T05:25:26.389Z,102178.16
2022-11-27T05:30:32.771Z,102179.09
2022-11-27T05:35:40.583Z,102175.72
2022-11-27T05:40:46.951Z,102166.31
2022-11-27T05:45:53.584Z,102165.50
2022-11-27T05:51:01.669Z,102156.00
2022-11-27T05:56:12.240Z,102165.50
2022-11-27T06:01:20.150Z,102163.81
2022-11-27T06:06:27.971Z,102162.94
2022-11-27T06:11:34.373Z,102156.00
2022-11-27T06:16:40.807Z,102150.00
2022-11-27T06:21:48.753Z,102143.25
2022-11-27T06:26:54.953Z,102143.16
2022-11-27T06:32:01.983Z,102151.00
2022-11-27T06:37:13.140Z,102155.34
2022-11-27T06:42:20.318Z,102152.81
2022-11-27T06:47:26.893Z,102149.38
2022-11-27T06:52:40.003Z,102153.69
2022-11-27T06:57:47.386Z,102154.44
2022-11-27T07:02:57.002Z,102151.94
2022-11-27T07:08:04.801Z,102132.22
2022-11-27T07:13:10.996Z,102143.81
2022-11-27T07:18:17.159Z,102139.44
2022-11-27T07:23:25.003Z,102138.56
2022-11-27T07:28:31.177Z,102142.13
2022-11-27T07:33:37.444Z,102149.03
2022-11-27T07:38:45.472Z,102149.09
2022-11-27T07:43:52.227Z,102149.22
2022-11-27T07:49:00.926Z,102149.38
2022-11-27T07:54:10.024Z,102148.75
2022-11-27T07:59:16.334Z,102154.06
2022-11-27T08:04:22.808Z,102152.47
2022-11-27T08:09:31.969Z,102158.59
2022-11-27T08:14:38.504Z,102156.31
2022-11-27T08:19:44.734Z,102153.94
2022-11-27T08:24:53.191Z,102149.78
2022-11-27T08:29:59.506Z,102141.22
2022-11-27T08:35:06.087Z,102144.03
2022-11-27T08:40:14.628Z,102147.59
2022-11-27T08:45:20.943Z,102147.75
2022-11-27T08:50:27.548Z,102149.59
2022-11-27T08:55:35.404Z,102160.06
2022-11-27T09:00:43.757Z,102157.66
2022-11-27T09:05:50.025Z,102162.09
2022-11-27T09:11:02.251Z,102168.22
2022-11-27T09:16:11.543Z,102169.25
2022-11-27T09:21:19.939Z,102167.75
2022-11-27T09:26:28.333Z,102179.03
2022-11-27T09:31:34.638Z,102173.09
2022-11-27T09:36:40.954Z,102182.63
2022-11-27T09:41:53.021Z,102174.13
2022-11-27T09:47:03.450Z,102165.72
2022-11-27T09:52:18.146Z,102164.97
2022-11-27T09:57:33.621Z,102161.72
2022-11-27T10:02:40.168Z,102155.91
2022-11-27T10:08:32.783Z,102151.00
2022-11-27T10:14:07.662Z,102143.31
2022-11-27T10:19:27.552Z,102138.41
2022-11-27T10:24:43.477Z,102130.81
2022-11-27T10:29:56.045Z,102125.84
2022-11-27T10:35:07.277Z,102122.56
2022-11-27T10:40:24.991Z,102118.38
2022-11-27T10:45:45.539Z,102121.16
2022-11-27T10:50:53.135Z,102111.81
2022-11-27T10:56:52.202Z,102122.28
2022-11-27T11:02:01.444Z,102121.44
2022-11-27T11:07:27.688Z,102101.88
2022-11-27T11:12:34.423Z,102108.00
2022-11-27T11:17:42.131Z,102102.91
2022-11-27T11:22:49.546Z,102102.91
2022-11-27T11:27:56.191Z,102107.19
2022-11-27T11:33:05.884Z,102103.88
2022-11-27T11:38:20.309Z,102109.16
2022-11-27T11:43:29.419Z,102097.19
2022-11-27T11:48:38.746Z,102098.06
2022-11-27T11:53:51.068Z,102104.97
2022-11-27T11:59:00.179Z,102099.84
2022-11-27T12:04:35.892Z,102096.47
2022-11-27T12:09:56.742Z,102092.25
2022-11-27T12:15:09.016Z,102085.31
2022-11-27T12:20:25.413Z,102081.09
2022-11-27T12:25:37.954Z,102070.88
2022-11-27T12:30:54.061Z,102080.31
2022-11-27T12:36:13.748Z,102088.97
2022-11-27T12:41:54.825Z,102082.06
2022-11-27T12:47:06.613Z,102079.47
2022-11-27T12:52:20.822Z,102076.13
2022-11-27T12:57:38.344Z,102068.53
2022-11-27T13:02:54.535Z,102060.78
2022-11-27T13:08:08.427Z,102058.28
2022-11-27T13:13:19.955Z,102060.84
2022-11-27T13:18:35.366Z,102057.34
2022-11-27T13:23:44.175Z,102060.75
2022-11-27T13:28:55.821Z,102053.78
2022-11-27T13:34:07.718Z,102064.09
2022-11-27T13:39:29.305Z,102061.53
2022-11-27T13:44:40.127Z,102057.19
2022-11-27T13:49:48.320Z,102065.72
2022-11-27T13:54:59.009Z,102064.78
2022-11-27T14:00:10.385Z,102066.44
2022-11-27T14:05:22.944Z,102052.69
2022-11-27T14:10:34.521Z,102055.25
2022-11-27T14:15:43.098Z,102044.00
2022-11-27T14:20:54.178Z,102039.59
2022-11-27T14:26:14.825Z,102043.81
2022-11-27T14:31:30.107Z,102051.53
2022-11-27T14:36:37.688Z,102036.81
2022-11-27T14:41:46.809Z,102047.03
2022-11-27T14:46:55.955Z,102045.19
2022-11-27T14:52:07.493Z,102041.75
2022-11-27T14:57:22.105Z,102042.50
2022-11-27T15:02:29.680Z,102041.59
2022-11-27T15:07:46.530Z,102043.25
2022-11-27T15:12:58.294Z,102032.84
2022-11-27T15:18:08.552Z,102035.31
2022-11-27T15:23:19.782Z,102037.03
2022-11-27T15:28:37.324Z,102047.22
2022-11-27T15:33:44.099Z,102035.94
2022-11-27T15:38:52.977Z,102036.75
2022-11-27T15:44:01.181Z,102040.16
2022-11-27T15:49:14.488Z,102039.16
2022-11-27T15:54:22.214Z,102038.34
2022-11-27T15:59:31.031Z,102033.13
2022-11-27T16:04:37.610Z,102031.38
2022-11-27T16:09:44.801Z,102033.03
2022-11-27T16:14:53.415Z,102027.09
2022-11-27T16:20:00.642Z,102029.66
2022-11-27T16:25:11.556Z,102021.03
2022-11-27T16:30:23.056Z,102020.09
2022-11-27T16:35:31.776Z,102019.22
2022-11-27T16:40:39.875Z,102010.63
2022-11-27T16:45:48.938Z,102001.16
2022-11-27T16:51:05.336Z,102006.34
2022-11-27T16:56:15.821Z,102005.38
2022-11-27T17:01:28.946Z,102007.97
2022-11-27T17:06:38.752Z,101997.75
2022-11-27T17:11:50.495Z,102002.03
2022-11-27T17:17:01.461Z,101991.72
2022-11-27T17:22:10.387Z,101988.19
2022-11-27T17:27:19.333Z,101980.47
2022-11-27T17:32:28.696Z,101979.56
2022-11-27T17:37:36.693Z,101978.72
2022-11-27T17:42:45.152Z,101971.03
2022-11-27T17:47:55.122Z,101973.56
2022-11-27T17:53:06.181Z,101975.31
2022-11-27T17:58:14.897Z,101969.31
2022-11-27T18:03:24.578Z,101971.03
2022-11-27T18:08:33.612Z,101965.84
2022-11-27T18:13:42.236Z,101968.44
2022-11-27T18:18:55.957Z,101957.13
2022-11-27T18:29:33.512Z,101945.97
2022-11-27T18:34:44.017Z,101937.28
2022-11-27T18:39:52.331Z,101933.81
2022-11-27T18:45:00.266Z,101939.78
2022-11-27T18:50:12.975Z,101935.28
2022-11-27T18:55:22.415Z,101940.31
2022-11-27T19:00:30.311Z,101935.13
2022-11-27T19:05:41.383Z,101935.19
2022-11-27T19:10:49.235Z,101927.31
2022-11-27T19:15:56.913Z,101931.63
2022-11-27T19:21:12.886Z,101929.97
2022-11-27T19:26:22.830Z,101921.38
2022-11-27T19:31:31.574Z,101929.13
2022-11-27T19:36:46.508Z,101922.22
2022-11-27T19:41:54.565Z,101926.41
2022-11-27T19:47:03.257Z,101921.97
2022-11-27T19:52:14.137Z,101919.47
2022-11-27T19:57:21.434Z,101919.47
2022-11-27T20:02:30.745Z,101920.34
2022-11-27T20:07:41.775Z,101924.66
2022-11-27T20:12:49.866Z,101923.00
2022-11-27T20:17:59.006Z,101923.03
2022-11-27T20:23:08.715Z,101932.53
2022-11-27T20:28:15.925Z,101927.38
2022-11-27T20:33:24.531Z,101920.53
2022-11-27T20:38:33.698Z,101926.53
2022-11-27T20:43:44.708Z,101924.84
2022-11-27T20:48:55.860Z,101917.97
2022-11-27T20:54:06.754Z,101926.56
2022-11-27T20:59:15.226Z,101929.22
2022-11-27T21:04:26.131Z,101924.06
2022-11-27T21:09:35.568Z,101921.53
2022-11-27T21:14:43.020Z,101927.50
2022-11-27T21:19:52.107Z,101926.66
2022-11-27T21:25:00.991Z,101918.91
2022-11-27T21:30:11.517Z,101917.22
2022-11-27T21:35:18.943Z,101920.69
2022-11-27T21:40:27.539Z,101917.28
2022-11-27T21:45:37.702Z,101912.94
2022-11-27T21:50:44.937Z,101909.56
2022-11-27T21:55:52.881Z,101905.28
2022-11-27T22:00:59.385Z,101902.72
2022-11-27T22:06:08.823Z,101901.00
2022-11-27T22:11:19.628Z,101898.44
2022-11-27T22:16:29.907Z,101897.66
2022-11-27T22:21:37.150Z,101895.06
2022-11-27T22:26:45.211Z,101894.22
2022-11-27T22:31:54.957Z,101895.94
2022-11-27T22:37:04.076Z,101891.63
2022-11-27T22:42:12.576Z,101892.50
2022-11-27T22:47:19.376Z,101882.09
2022-11-27T22:52:26.746Z,101885.56
2022-11-27T22:57:36.410Z,101887.25
2022-11-27T23:02:43.062Z,101880.38
2022-11-27T23:07:49.969Z,101877.84
2022-11-27T23:12:59.084Z,101872.69
2022-11-27T23:18:06.349Z,101875.25
2022-11-27T23:23:13.353Z,101866.66
2022-11-27T23:28:21.547Z,101870.06
2022-11-27T23:33:28.016Z,101867.53
2022-11-27T23:38:34.774Z,101864.09
2022-11-27T23:43:43.895Z,101864.09
2022-11-27T23:48:50.503Z,101864.94
2022-11-27T23:53:57.425Z,101866.63
2022-11-27T23:59:05.808Z,101866.66
